Time;durP1;ratioP1;P1;durP2;ratioP2;P2;SDS_P1;SDS_P2;PMS_P1;PMS_P2;Temp;Humidity;BMP_temperature;BMP_pressure;BME280_temperature;BME280_humidity;BME280_pressure;Samples;Min_cycle;Max_cycle;Signal;HPM_P1;HPM_P2
2021/03/06 00:03:04;;;;;;;7.07;3.15;;;-0.70;99.90;;;;;;12451116;28;20118;-82
2021/03/06 00:09:06;;;;;;;5.78;3.30;;;-0.90;99.90;;;;;;12457842;28;20052;-82
2021/03/06 00:15:09;;;;;;;5.40;3.13;;;-1.00;99.90;;;;;;12446811;28;20145;-82
2021/03/06 00:21:10;;;;;;;5.95;3.35;;;-1.10;99.90;;;;;;12444842;28;20049;-82
2021/03/06 00:27:20;;;;;;;7.03;3.10;;;-1.20;99.90;;;;;;12445280;28;20062;-82
2021/03/06 00:33:21;;;;;;;9.80;3.60;;;-1.10;99.90;;;;;;12441480;28;20448;-82
2021/03/06 00:39:23;;;;;;;6.93;3.40;;;-1.00;99.90;;;;;;12445586;28;20069;-82
2021/03/06 00:45:24;;;;;;;8.18;3.13;;;-1.10;99.90;;;;;;12441986;28;20038;-82
2021/03/06 00:51:27;;;;;;;7.60;3.85;;;-1.20;99.90;;;;;;12458695;28;20038;-82
2021/03/06 00:57:41;;;;;;;10.03;3.77;;;-1.20;99.90;;;;;;12461576;28;20053;-82
2021/03/06 01:03:42;;;;;;;8.43;3.95;;;-1.20;99.90;;;;;;12443036;28;20148;-82
2021/03/06 01:09:44;;;;;;;7.32;3.33;;;-1.20;99.90;;;;;;12438077;28;20060;-82
2021/03/06 01:15:45;;;;;;;9.63;3.38;;;-1.10;99.90;;;;;;12446082;28;20136;-82
2021/03/06 01:21:47;;;;;;;11.25;3.40;;;-1.20;99.90;;;;;;12444292;28;20124;-82
2021/03/06 01:28:07;;;;;;;11.05;3.80;;;-1.00;99.90;;;;;;12444801;28;20148;-82
2021/03/06 01:34:09;;;;;;;7.85;3.80;;;-0.90;99.90;;;;;;12458868;28;20049;-82
2021/03/06 01:40:12;;;;;;;8.43;2.88;;;-1.10;99.90;;;;;;12451767;28;20130;-82
2021/03/06 01:46:13;;;;;;;8.88;3.53;;;-1.30;99.90;;;;;;12451004;28;20065;-82
2021/03/06 01:52:15;;;;;;;6.05;2.90;;;-1.40;99.90;;;;;;12441093;28;20076;-82
2021/03/06 01:58:28;;;;;;;7.95;3.08;;;-1.20;99.90;;;;;;12434379;28;20056;-82
2021/03/06 02:04:29;;;;;;;8.90;3.38;;;-1.20;99.90;;;;;;12438969;28;20287;-82
2021/03/06 02:10:36;;;;;;;6.80;2.90;;;-1.20;99.90;;;;;;12442177;28;20408;-81
2021/03/06 02:16:50;;;;;;;11.65;4.35;;;-1.30;99.90;;;;;;12441680;28;20140;-82
2021/03/06 02:23:18;;;;;;;9.23;3.10;;;-1.30;99.90;;;;;;12447710;28;20046;-82
2021/03/06 02:30:13;;;;;;;10.60;3.05;;;-1.40;99.90;;;;;;12450739;28;20540;-82
2021/03/06 02:36:18;;;;;;;9.07;3.22;;;-1.40;99.90;;;;;;12277237;28;20134;-82
2021/03/06 02:42:23;;;;;;;7.85;3.03;;;-1.20;99.90;;;;;;12452989;28;20181;-82
2021/03/06 02:48:24;;;;;;;;;;;-1.20;99.90;;;;;;12442895;28;20168;-83
2021/03/06 02:54:26;;;;;;;8.63;3.03;;;-1.30;99.90;;;;;;12442747;28;19926;-82
2021/03/06 03:00:42;;;;;;;7.30;3.10;;;-1.40;99.90;;;;;;12436120;28;20126;-82
2021/03/06 03:06:48;;;;;;;6.28;3.05;;;-1.40;99.90;;;;;;12450108;28;20049;-82
2021/03/06 03:12:56;;;;;;;7.60;3.50;;;-1.40;99.90;;;;;;12444789;28;20491;-82
2021/03/06 03:18:58;;;;;;;7.22;3.40;;;-1.60;99.90;;;;;;12454343;28;20077;-82
2021/03/06 03:25:02;;;;;;;7.63;3.03;;;-1.50;99.90;;;;;;12439922;28;20179;-82
2021/03/06 03:31:05;;;;;;;9.55;3.38;;;-1.50;99.90;;;;;;12436405;28;20136;-82
2021/03/06 03:37:10;;;;;;;12.80;3.25;;;-1.50;99.90;;;;;;12452001;28;20306;-82
2021/03/06 03:43:12;;;;;;;9.77;3.38;;;-1.60;99.90;;;;;;12429800;28;20044;-82
2021/03/06 03:49:16;;;;;;;4.95;3.03;;;-1.60;99.90;;;;;;12434915;28;21093;-82
2021/03/06 03:55:19;;;;;;;7.15;3.33;;;-1.80;99.90;;;;;;12442134;28;20075;-81
2021/03/06 04:01:27;;;;;;;8.02;3.65;;;-1.80;99.90;;;;;;12427981;28;20060;-82
2021/03/06 04:07:29;;;;;;;13.75;3.72;;;-1.90;99.90;;;;;;12433755;28;20057;-82
2021/03/06 04:13:30;;;;;;;9.20;3.53;;;-1.90;99.90;;;;;;12437317;28;20174;-82
2021/03/06 04:19:31;;;;;;;10.90;3.72;;;-1.80;99.90;;;;;;12438692;28;20458;-82
2021/03/06 04:25:33;;;;;;;10.40;3.88;;;-1.70;99.90;;;;;;12454054;28;20081;-82
2021/03/06 04:31:34;;;;;;;11.60;4.38;;;-1.70;99.90;;;;;;12437628;28;20045;-82
2021/03/06 04:37:37;;;;;;;7.75;3.58;;;-1.60;99.90;;;;;;12446061;28;20045;-82
2021/03/06 04:43:39;;;;;;;9.02;3.03;;;-1.40;99.90;;;;;;12444522;28;20057;-82
2021/03/06 04:49:40;;;;;;;11.13;3.30;;;-1.40;99.90;;;;;;12460747;28;20109;-83
2021/03/06 04:55:42;;;;;;;10.02;3.20;;;-1.50;99.90;;;;;;12438869;28;20104;-82
2021/03/06 05:01:43;;;;;;;11.43;3.63;;;-1.50;99.90;;;;;;12440020;28;20509;-82
2021/03/06 05:07:45;;;;;;;9.93;3.33;;;-1.60;99.90;;;;;;12431479;28;20505;-82
2021/03/06 05:13:46;;;;;;;12.45;4.10;;;-1.60;99.90;;;;;;12435990;28;20049;-82
2021/03/06 05:19:48;;;;;;;8.65;3.58;;;-1.60;99.90;;;;;;12440538;28;20200;-82
2021/03/06 05:25:50;;;;;;;9.90;3.10;;;-1.50;99.90;;;;;;12433126;28;20046;-82
2021/03/06 05:31:51;;;;;;;14.35;3.83;;;-1.40;99.90;;;;;;12429219;28;20144;-82
2021/03/06 05:37:52;;;;;;;7.43;3.50;;;-1.40;99.90;;;;;;12437372;28;20061;-82
2021/03/06 05:43:57;;;;;;;8.80;3.47;;;-1.20;99.90;;;;;;12438940;28;20056;-82
2021/03/06 05:49:59;;;;;;;11.68;4.03;;;-1.10;99.90;;;;;;12439525;28;20145;-83
2021/03/06 05:56:04;;;;;;;7.88;3.80;;;-1.00;99.90;;;;;;12447282;28;20460;-83
2021/03/06 06:02:06;;;;;;;11.40;3.67;;;-0.90;99.90;;;;;;12434555;28;20053;-84
2021/03/06 06:08:08;;;;;;;10.07;3.38;;;-0.80;99.90;;;;;;12436201;28;20044;-83
2021/03/06 06:14:10;;;;;;;13.40;3.83;;;-0.70;99.90;;;;;;12426832;28;20128;-84
2021/03/06 06:20:16;;;;;;;14.40;3.72;;;-0.80;99.90;;;;;;12434637;28;20045;-84
2021/03/06 06:26:17;;;;;;;10.23;3.85;;;-0.90;99.90;;;;;;12438797;28;20175;-84
2021/03/06 06:32:20;;;;;;;11.77;3.60;;;-0.80;99.90;;;;;;12451960;28;20179;-84
2021/03/06 06:38:21;;;;;;;10.73;3.78;;;-0.50;99.90;;;;;;12433861;28;20715;-84
2021/03/06 06:44:24;;;;;;;8.95;3.08;;;-0.40;99.90;;;;;;12434066;28;20045;-84
2021/03/06 06:50:33;;;;;;;13.38;2.75;;;-0.30;99.90;;;;;;12436929;28;20103;-83
2021/03/06 06:56:35;;;;;;;7.93;2.50;;;0.00;99.90;;;;;;12441659;28;20413;-84
2021/03/06 07:02:36;;;;;;;9.25;2.58;;;0.30;99.90;;;;;;12430950;28;20069;-83
2021/03/06 07:08:39;;;;;;;7.45;1.95;;;0.50;99.90;;;;;;12433904;28;20786;-83
2021/03/06 07:14:40;;;;;;;9.85;2.20;;;0.60;99.90;;;;;;12419930;28;20490;-84
2021/03/06 07:20:43;;;;;;;8.43;4.43;;;0.70;99.90;;;;;;12430546;28;20076;-84
2021/03/06 07:26:45;;;;;;;13.23;6.00;;;1.10;99.90;;;;;;12453208;28;20140;-84
2021/03/06 07:32:47;;;;;;;14.77;4.70;;;1.20;99.90;;;;;;12458772;28;20111;-84
2021/03/06 07:38:49;;;;;;;12.63;7.28;;;0.90;99.90;;;;;;12439932;28;20184;-84
2021/03/06 07:44:55;;;;;;;15.20;6.63;;;0.70;99.90;;;;;;12438456;28;20046;-84
2021/03/06 07:50:58;;;;;;;12.20;6.18;;;0.90;99.90;;;;;;12445956;28;20285;-84
2021/03/06 07:57:00;;;;;;;13.10;6.85;;;1.00;99.90;;;;;;12442068;28;20152;-84
2021/03/06 08:03:26;;;;;;;14.80;7.32;;;1.60;99.90;;;;;;12433660;28;20562;-84
2021/03/06 08:10:00;;;;;;;13.63;6.75;;;1.70;99.90;;;;;;12441507;28;20137;-84
2021/03/06 08:16:23;;;;;;;13.73;8.10;;;1.40;99.90;;;;;;12428965;28;20099;-84
2021/03/06 08:22:25;;;;;;;13.95;7.57;;;1.70;99.90;;;;;;12464423;28;20037;-84
2021/03/06 08:28:27;;;;;;;12.43;6.78;;;1.90;99.90;;;;;;12438794;28;20142;-83
2021/03/06 08:34:34;;;;;;;12.90;6.85;;;1.60;99.90;;;;;;12463532;28;20196;-84
2021/03/06 08:40:36;;;;;;;9.23;5.55;;;2.00;99.90;;;;;;12455601;28;20413;-83
2021/03/06 08:46:40;;;;;;;13.48;6.63;;;2.20;99.90;;;;;;12444235;28;20091;-83
2021/03/06 08:52:55;;;;;;;14.70;7.35;;;2.50;99.90;;;;;;12444987;28;20049;-83
2021/03/06 08:58:56;;;;;;;13.85;4.93;;;2.60;99.90;;;;;;12468283;28;20094;-84
2021/03/06 09:05:00;;;;;;;5.63;2.25;;;2.70;99.90;;;;;;12453204;28;20048;-84
2021/03/06 09:11:04;;;;;;;6.82;2.50;;;2.90;99.90;;;;;;12457820;28;20128;-83
2021/03/06 09:17:10;;;;;;;6.20;2.60;;;3.30;99.90;;;;;;12452769;28;20535;-84
2021/03/06 09:23:24;;;;;;;5.57;2.58;;;3.60;99.90;;;;;;12458946;28;20402;-84
2021/03/06 09:29:29;;;;;;;6.90;2.13;;;3.70;99.90;;;;;;12476859;28;20545;-83
2021/03/06 09:35:30;;;;;;;6.15;2.38;;;3.60;99.90;;;;;;12468023;28;20042;-83
2021/03/06 09:41:42;;;;;;;8.63;2.30;;;3.80;99.90;;;;;;12456563;28;20078;-83
2021/03/06 09:47:45;;;;;;;8.30;2.28;;;3.90;99.90;;;;;;12443887;28;20053;-83
2021/03/06 09:54:00;;;;;;;7.93;2.33;;;4.10;99.90;;;;;;12442801;28;20064;-83
2021/03/06 10:00:01;;;;;;;8.60;2.80;;;4.30;99.90;;;;;;12432032;28;20243;-84
2021/03/06 10:06:05;;;;;;;5.45;2.20;;;4.20;99.90;;;;;;12444374;28;20067;-83
2021/03/06 10:12:09;;;;;;;7.45;2.47;;;4.60;99.90;;;;;;12450039;28;20041;-82
2021/03/06 10:18:10;;;;;;;5.20;2.28;;;4.60;99.90;;;;;;12443472;28;20049;-84
2021/03/06 10:24:12;;;;;;;6.63;2.50;;;4.70;99.90;;;;;;12457934;28;21217;-84
2021/03/06 10:30:26;;;;;;;6.65;2.20;;;4.80;99.90;;;;;;12453653;28;20046;-85
2021/03/06 10:36:28;;;;;;;9.07;2.60;;;4.80;99.90;;;;;;12463641;28;20143;-84
2021/03/06 10:42:47;;;;;;;8.48;2.40;;;5.20;99.90;;;;;;12449693;28;20136;-84
2021/03/06 10:48:52;;;;;;;7.32;1.90;;;5.30;99.90;;;;;;12451689;28;20104;-84
2021/03/06 10:54:56;;;;;;;4.60;1.20;;;5.30;99.90;;;;;;12467267;28;20061;-84
2021/03/06 11:01:00;;;;;;;2.45;1.13;;;5.40;99.90;;;;;;12446948;28;20052;-85
2021/03/06 11:07:05;;;;;;;3.28;1.10;;;5.60;99.90;;;;;;12471924;28;20049;-84
2021/03/06 11:13:07;;;;;;;9.73;1.58;;;5.70;99.90;;;;;;12438554;28;20070;-84
2021/03/06 11:19:08;;;;;;;6.47;1.63;;;5.60;99.90;;;;;;12440068;28;20046;-84
2021/03/06 11:25:12;;;;;;;2.92;1.25;;;5.80;99.90;;;;;;12436878;28;20088;-84
2021/03/06 11:31:13;;;;;;;5.32;1.45;;;6.10;99.90;;;;;;12440257;28;20041;-84
2021/03/06 11:37:15;;;;;;;4.53;1.50;;;6.40;99.90;;;;;;12443440;28;20088;-84
2021/03/06 11:43:17;;;;;;;5.05;2.08;;;6.50;99.90;;;;;;12438303;28;20072;-85
2021/03/06 11:49:18;;;;;;;6.70;1.60;;;6.40;99.90;;;;;;12429925;28;20140;-84
2021/03/06 11:55:20;;;;;;;5.13;1.33;;;6.60;99.90;;;;;;12444421;28;20575;-84
2021/03/06 12:01:21;;;;;;;5.95;1.60;;;7.40;99.90;;;;;;12464336;28;20158;-84
2021/03/06 12:07:23;;;;;;;3.08;1.40;;;7.40;99.90;;;;;;12445140;28;20046;-84
2021/03/06 12:13:24;;;;;;;3.97;1.20;;;6.70;99.90;;;;;;12454240;28;20141;-83
2021/03/06 12:19:25;;;;;;;10.05;2.10;;;6.80;99.90;;;;;;12441032;28;20714;-84
2021/03/06 12:25:28;;;;;;;4.82;1.60;;;6.80;99.90;;;;;;12447482;28;20061;-84
2021/03/06 12:31:29;;;;;;;5.70;1.40;;;7.50;99.90;;;;;;12446119;28;20072;-85
2021/03/06 12:37:31;;;;;;;4.47;1.15;;;7.70;99.90;;;;;;12453839;28;20050;-84
2021/03/06 12:43:32;;;;;;;3.50;1.00;;;6.90;99.90;;;;;;12444286;28;20053;-84
2021/03/06 12:49:33;;;;;;;4.35;1.30;;;6.90;99.90;;;;;;12459349;28;20053;-84
2021/03/06 12:55:35;;;;;;;4.55;1.23;;;6.90;99.90;;;;;;12443223;28;20045;-84
2021/03/06 13:01:37;;;;;;;2.78;1.20;;;6.80;99.90;;;;;;12444015;28;20484;-84
2021/03/06 13:07:39;;;;;;;5.55;1.30;;;7.40;99.90;;;;;;12455429;28;20038;-84
2021/03/06 13:13:40;;;;;;;2.58;1.30;;;7.20;99.90;;;;;;12452963;28;20089;-84
2021/03/06 13:19:41;;;;;;;4.47;1.27;;;7.10;99.90;;;;;;12454675;28;20068;-84
2021/03/06 13:25:43;;;;;;;3.15;1.25;;;6.80;99.90;;;;;;12475150;28;20077;-84
2021/03/06 13:31:44;;;;;;;2.65;1.10;;;7.00;99.90;;;;;;12453191;28;20592;-84
2021/03/06 13:37:46;;;;;;;4.30;1.40;;;6.80;99.90;;;;;;12452906;28;20069;-84
2021/03/06 13:43:47;;;;;;;4.03;1.42;;;6.70;99.90;;;;;;12451365;28;20456;-84
2021/03/06 13:49:49;;;;;;;3.33;1.20;;;6.60;99.90;;;;;;12451318;28;20679;-84
2021/03/06 13:55:50;;;;;;;5.97;1.20;;;6.60;99.90;;;;;;12448494;28;20075;-84
2021/03/06 14:01:51;;;;;;;2.72;1.00;;;6.80;99.90;;;;;;12441426;28;20198;-84
2021/03/06 14:07:53;;;;;;;4.47;1.05;;;6.90;99.90;;;;;;12463513;28;20052;-84
2021/03/06 14:13:54;;;;;;;4.63;1.00;;;7.00;99.90;;;;;;12445767;28;20506;-84
2021/03/06 14:19:56;;;;;;;6.50;1.67;;;7.00;99.90;;;;;;12437617;28;20049;-84
2021/03/06 14:25:57;;;;;;;3.45;0.98;;;6.70;99.90;;;;;;12443157;28;20077;-84
2021/03/06 14:31:59;;;;;;;3.05;1.10;;;6.60;99.90;;;;;;12460658;28;20037;-84
2021/03/06 14:38:01;;;;;;;5.70;1.40;;;6.50;99.90;;;;;;12441695;28;20057;-84
2021/03/06 14:44:04;;;;;;;3.97;1.40;;;6.30;99.90;;;;;;12445523;28;20102;-84
2021/03/06 14:50:06;;;;;;;2.30;1.40;;;6.10;99.90;;;;;;12458506;28;20133;-83
2021/03/06 14:56:08;;;;;;;3.72;1.10;;;6.10;99.90;;;;;;12444010;28;20099;-84
2021/03/06 15:02:09;;;;;;;2.65;1.20;;;6.00;99.90;;;;;;12458370;28;20152;-84
2021/03/06 15:08:11;;;;;;;4.30;1.40;;;5.90;99.90;;;;;;12445610;28;20065;-84
2021/03/06 15:14:13;;;;;;;3.00;1.17;;;6.00;99.90;;;;;;12437823;28;20042;-84
2021/03/06 15:20:15;;;;;;;2.85;1.30;;;6.00;99.90;;;;;;12432608;28;20060;-83
2021/03/06 15:26:17;;;;;;;7.10;2.60;;;6.10;99.90;;;;;;12442320;28;20078;-84
2021/03/06 15:32:19;;;;;;;3.60;1.48;;;6.30;99.90;;;;;;12436262;28;20084;-84
2021/03/06 15:38:33;;;;;;;6.63;2.30;;;6.20;99.90;;;;;;12439820;28;20045;-84
2021/03/06 15:44:34;;;;;;;7.47;2.20;;;6.30;99.90;;;;;;12453878;28;20132;-84
2021/03/06 15:50:35;;;;;;;4.72;1.60;;;6.30;99.90;;;;;;12437405;28;20053;-84
2021/03/06 15:56:37;;;;;;;4.07;1.30;;;6.10;99.90;;;;;;12431606;28;20068;-85
2021/03/06 16:02:39;;;;;;;5.82;1.92;;;5.80;99.90;;;;;;12439048;28;20065;-84
2021/03/06 16:08:55;;;;;;;5.60;1.58;;;6.00;99.90;;;;;;12445369;28;20050;-84
2021/03/06 16:14:56;;;;;;;4.45;1.38;;;6.10;99.90;;;;;;12438550;28;20413;-84
2021/03/06 16:20:58;;;;;;;4.68;1.42;;;6.10;99.90;;;;;;12442286;28;20493;-84
2021/03/06 16:27:00;;;;;;;8.70;2.85;;;5.90;99.90;;;;;;12446080;28;20049;-85
2021/03/06 16:33:01;;;;;;;5.38;1.95;;;5.80;99.90;;;;;;12443385;28;20128;-84
2021/03/06 16:39:19;;;;;;;5.90;1.85;;;5.50;99.90;;;;;;12465226;28;21961;-84
2021/03/06 16:45:20;;;;;;;4.53;1.98;;;5.20;99.90;;;;;;12447068;28;20116;-84
2021/03/06 16:51:21;;;;;;;5.47;2.33;;;5.20;99.90;;;;;;12457161;28;20321;-84
2021/03/06 16:57:23;;;;;;;4.90;2.60;;;5.10;99.90;;;;;;12447548;28;20140;-83
2021/03/06 17:03:40;;;;;;;2.80;1.60;;;5.10;99.90;;;;;;12449409;28;20048;-84
2021/03/06 17:09:45;;;;;;;3.45;1.67;;;4.90;99.90;;;;;;12445130;28;20092;-83
2021/03/06 17:15:46;;;;;;;2.97;1.83;;;4.70;99.90;;;;;;12447419;28;20080;-84
2021/03/06 17:21:48;;;;;;;5.70;3.05;;;4.50;99.90;;;;;;12442707;28;20075;-84
2021/03/06 17:27:50;;;;;;;6.00;2.63;;;4.40;99.90;;;;;;12445995;28;20056;-84
2021/03/06 17:33:51;;;;;;;5.40;2.60;;;4.30;99.90;;;;;;12462292;28;20042;-84
2021/03/06 17:40:08;;;;;;;5.32;2.78;;;4.20;99.90;;;;;;12452881;28;20054;-82
2021/03/06 17:46:10;;;;;;;5.55;2.90;;;4.20;99.90;;;;;;12446949;28;20049;-82
2021/03/06 17:52:12;;;;;;;5.93;3.03;;;4.20;99.90;;;;;;12434152;28;20042;-82
2021/03/06 17:58:13;;;;;;;8.38;3.17;;;4.10;99.90;;;;;;12465714;28;20042;-82
2021/03/06 18:04:15;;;;;;;7.93;3.55;;;4.10;99.90;;;;;;12440892;28;20069;-82
2021/03/06 18:10:28;;;;;;;6.50;3.85;;;3.90;99.90;;;;;;12459700;28;20114;-82
2021/03/06 18:16:29;;;;;;;14.00;6.80;;;3.90;99.90;;;;;;12445838;28;20038;-85
2021/03/06 18:22:31;;;;;;;10.10;4.93;;;3.90;99.90;;;;;;12474907;28;20151;-84
2021/03/06 18:28:32;;;;;;;8.35;4.53;;;3.80;99.90;;;;;;12434622;28;20042;-84
2021/03/06 18:34:34;;;;;;;10.90;4.30;;;3.80;99.90;;;;;;12407781;28;20069;-84
2021/03/06 18:40:49;;;;;;;6.50;3.90;;;3.70;99.90;;;;;;12416597;28;20473;-85
2021/03/06 18:46:51;;;;;;;10.20;4.95;;;3.70;99.90;;;;;;12421153;28;20046;-84
2021/03/06 18:52:53;;;;;;;8.27;4.28;;;3.70;99.90;;;;;;12415052;28;20073;-84
2021/03/06 18:58:54;;;;;;;10.00;4.60;;;3.80;99.90;;;;;;12416170;28;20440;-82
2021/03/06 19:04:55;;;;;;;10.65;4.75;;;3.80;99.90;;;;;;12425850;28;20098;-83
2021/03/06 19:11:11;;;;;;;7.68;4.07;;;3.90;99.90;;;;;;12419980;28;20046;-82
2021/03/06 19:17:12;;;;;;;9.05;4.30;;;3.90;99.90;;;;;;12431024;28;20393;-82
2021/03/06 19:23:14;;;;;;;9.77;4.93;;;4.00;99.90;;;;;;12453367;28;20042;-82
2021/03/06 19:29:16;;;;;;;9.43;5.35;;;4.20;99.90;;;;;;12463654;28;20080;-82
2021/03/06 19:35:21;;;;;;;9.85;4.82;;;4.00;99.90;;;;;;12467294;28;20046;-82
2021/03/06 19:41:37;;;;;;;14.48;5.55;;;3.90;99.90;;;;;;12478509;28;20101;-82
2021/03/06 19:47:39;;;;;;;8.77;4.60;;;3.90;99.90;;;;;;12447797;28;20046;-82
2021/03/06 19:53:41;;;;;;;8.82;3.65;;;3.80;99.90;;;;;;12405377;28;20042;-82
2021/03/06 19:59:42;;;;;;;9.25;4.18;;;3.70;99.90;;;;;;12423923;28;20058;-82
2021/03/06 20:05:43;;;;;;;9.10;4.65;;;3.70;99.90;;;;;;12412677;28;20101;-82
2021/03/06 20:11:57;;;;;;;8.73;4.70;;;3.70;99.90;;;;;;12413904;28;20426;-82
2021/03/06 20:17:59;;;;;;;9.10;4.00;;;3.70;99.90;;;;;;12425635;28;20053;-82
2021/03/06 20:24:00;;;;;;;8.50;4.30;;;4.00;99.90;;;;;;12434063;28;20164;-82
2021/03/06 20:30:03;;;;;;;7.85;3.38;;;4.10;99.90;;;;;;12477471;28;20822;-82
2021/03/06 20:36:06;;;;;;;6.22;3.60;;;4.30;99.90;;;;;;12460561;28;20791;-82
2021/03/06 20:42:17;;;;;;;6.00;3.80;;;4.20;99.90;;;;;;12462667;28;20079;-82
2021/03/06 20:48:18;;;;;;;7.15;2.90;;;4.30;99.90;;;;;;12464661;28;20808;-82
2021/03/06 20:54:20;;;;;;;7.93;3.55;;;4.40;99.90;;;;;;12465336;28;20041;-82
2021/03/06 21:00:22;;;;;;;9.88;3.70;;;4.30;99.90;;;;;;12460143;28;20041;-82
2021/03/06 21:06:24;;;;;;;9.05;4.10;;;4.20;99.90;;;;;;12451614;28;20485;-82
2021/03/06 21:12:39;;;;;;;12.05;4.43;;;4.10;99.90;;;;;;12458358;28;20046;-82
2021/03/06 21:18:42;;;;;;;7.72;3.90;;;4.20;99.90;;;;;;12464030;28;20160;-82
2021/03/06 21:24:43;;;;;;;12.32;4.93;;;4.20;99.90;;;;;;12455940;28;20057;-82
2021/03/06 21:30:45;;;;;;;9.27;5.32;;;4.00;99.90;;;;;;12450764;28;20132;-82
2021/03/06 21:36:46;;;;;;;8.88;4.65;;;3.80;99.90;;;;;;12456487;28;20135;-82
2021/03/06 21:43:03;;;;;;;8.25;4.72;;;3.50;99.90;;;;;;12457009;28;20137;-82
2021/03/06 21:49:04;;;;;;;9.73;4.20;;;3.40;99.90;;;;;;12452358;28;20110;-82
2021/03/06 21:55:07;;;;;;;7.85;3.97;;;3.20;99.90;;;;;;12450490;28;20125;-82
2021/03/06 22:01:08;;;;;;;7.88;4.60;;;3.10;99.90;;;;;;12456670;28;20069;-81
2021/03/06 22:07:10;;;;;;;12.40;4.57;;;3.00;99.90;;;;;;12445063;28;20504;-82
2021/03/06 22:13:24;;;;;;;9.75;4.82;;;2.80;99.90;;;;;;12450680;28;20041;-81
2021/03/06 22:19:26;;;;;;;11.48;5.20;;;2.70;99.90;;;;;;12452421;28;20179;-82
2021/03/06 22:25:27;;;;;;;9.98;4.80;;;2.60;99.90;;;;;;12452303;28;20069;-82
2021/03/06 22:31:28;;;;;;;11.35;4.72;;;2.50;99.90;;;;;;12447271;28;20046;-82
2021/03/06 22:37:30;;;;;;;7.40;4.43;;;2.30;99.90;;;;;;12452393;28;20064;-82
2021/03/06 22:43:46;;;;;;;9.82;5.30;;;2.10;99.90;;;;;;12457153;28;20045;-81
2021/03/06 22:49:47;;;;;;;8.68;4.90;;;1.90;99.90;;;;;;12450155;28;20192;-81
2021/03/06 22:55:48;;;;;;;10.60;5.53;;;1.80;99.90;;;;;;12446725;28;20045;-82
2021/03/06 23:01:50;;;;;;;11.13;5.88;;;1.70;99.90;;;;;;12441187;28;21027;-81
2021/03/06 23:07:52;;;;;;;7.35;4.78;;;1.60;99.90;;;;;;12442025;28;20160;-82
2021/03/06 23:14:09;;;;;;;9.35;5.00;;;1.50;99.90;;;;;;12436631;28;20041;-82
2021/03/06 23:20:17;;;;;;;11.85;5.30;;;1.30;99.90;;;;;;12437418;28;20489;-82
2021/03/06 23:26:21;;;;;;;10.48;5.15;;;1.20;99.90;;;;;;12442124;28;20084;-81
2021/03/06 23:32:23;;;;;;;10.73;5.40;;;1.10;99.90;;;;;;12448663;28;20324;-81
2021/03/06 23:38:25;;;;;;;10.02;5.10;;;1.00;99.90;;;;;;12440391;28;21363;-81
2021/03/06 23:44:31;;;;;;;9.95;5.30;;;0.90;99.90;;;;;;12440855;28;20234;-82
2021/03/06 23:50:36;;;;;;;9.20;5.65;;;1.00;99.90;;;;;;12454014;28;20049;-82
2021/03/06 23:56:38;;;;;;;8.05;5.43;;;0.90;99.90;;;;;;12448523;28;20544;-81
